METAR for YSHR provided by aerobaticsweb.org
Current time: Sunday, 17 Oct, 2021, 03:35 UTC
(This may take a minute, please be patient)


No METAR for YSHR, get METAR for YBHM, 12 nm southeast of YSHR
The most recent METAR observation from YBHM, 12 nm southeast of YSHR in our system was generated at
2021/10/17 03:30
The observation is:
2021/10/17 03:30
YBHM 170330Z AUTO 11013KT 9999 // NCD 28/23 Q1010 RF00.0/000.0

24 Hour Summary

Time (UTC) Temperature
°C (°F)
Dew Point
°C (°F)
Pressure
Inches (hPa)
Wind
mph (km/h)
Weather
00:00 17 October 29 (84 ) 21 (69 ) 29.91 (1013) NNW 13 (21)
01:00 17 October 28 (82 ) 23 (73 ) 29.88 (1012) ESE 10 (16)
02:00 17 October 28 (82 ) 23 (73 ) 29.85 (1011) E 12 (19)
03:00 17 October 28 (82 ) 23 (73 ) 29.83 (1010) ESE 15 (24)
04:00 16 October 27 (80 ) 9 (48 ) 29.80 (1009) E 16 (26)
05:00 16 October 28 (82 ) 7 (44 ) 29.77 (1008) ENE 14 (23)
06:00 16 October 28 (82 ) 9 (48 ) 29.77 (1008) NE 16 (26)
07:00 16 October 26 (78 ) 12 (53 ) 29.80 (1009) ENE 13 (21)
08:00 16 October 25 (77 ) 14 (57 ) 29.83 (1010) ENE 8 (13)
09:00 16 October 24 (75 ) 15 (59 ) 29.85 (1011) N 1 (2)
10:00 16 October 24 (75 ) 16 (60 ) 29.88 (1012) N 5 (8)
11:00 16 October 24 (75 ) 16 (60 ) 29.88 (1012) N 1 (2)
12:00 16 October 23 (73 ) 17 (62 ) 29.88 (1012) N 6 (10)
13:00 16 October 23 (73 ) 18 (64 ) 29.88 (1012) N 6 (10)
14:00 16 October 23 (73 ) 18 (64 ) 29.88 (1012) Calm
15:00 16 October 23 (73 ) 19 (66 ) 29.85 (1011) N 5 (8)
16:00 16 October 23 (73 ) 19 (66 ) 29.85 (1011) N 3 (5)
17:00 16 October 23 (73 ) 20 (68 ) 29.85 (1011) Calm
18:00 16 October 22 (71 ) 20 (68 ) 29.85 (1011) Calm
19:00 16 October 22 (71 ) 19 (66 ) 29.88 (1012) Calm
20:00 16 October 23 (73 ) 20 (68 ) 29.88 (1012) Calm
21:00 16 October 26 (78 ) 19 (66 ) 29.91 (1013) ESE 3 (5)
22:00 16 October 27 (80 ) 21 (69 ) 29.94 (1014) SSE 5 (8)
23:00 16 October 28 (82 ) 22 (71 ) 29.94 (1014) N 8 (13)
The information presented here is taken from products produced by the U.S. National Weather Service and other national and international agencies. Landings.com does not present this as official information. Please refer to official weather briefings for flight critical information.


access provided by Dr. Guenther Eichhorn at aerobaticsweb.org